Welkom op de weersite van Veghel e.o.

Hopend op weer een interessant weer jaar.


Webcam Veghel  Webcam Veghel


Onweer radar Meer informatie blitzortung!


Regen radar Meer informatie rain snow radar


U vindt ons ook hier:

Het Weer Aktueel

European Weather Network

Weather Underground

Benelux Weer Netwerk

AWEKAS


Het weer levert geen direct gevaar op.    Er zijn geen waarschuwingen afgegeven.

METAR rapporten vliegvelden

   
EHAM - Amsterdam
Gewijzigd: 04-06-2020 13:25
Lichte (mot)regen, Grotendeels bewolkt  
Lichte (mot)regen, Grotendeels bewolkt  
   Wind: NW 22.2 km/h
Wind: NW 22.2 km/h
Temperatuur: 14°C
Dauwpunt: 11°C
Vochtigheid: 82%
Barometer: 998 hPa
Bewolking: Mostly Cloudy
Zicht: meer dan 10 km
Bewolking: Licht bewolkt 1000 ft,
Gedeeltelijk bewolkt 1400 ft,
Grotendeels bewolkt 4200 ft
EHAM 041125Z 32012KT 280V360 9999 -DZ FEW010 SCT014 BKN042 14/11 Q0998 NOSIG
EHEH - Eindhoven
Gewijzigd: 04-06-2020 13:29
Motregen, Grotendeels bewolkt  
Motregen, Grotendeels bewolkt  
   Wind: Westen 9.3 km/h
Wind: Westen 9.3 km/h
Temperatuur: 14°C
Dauwpunt: 12°C
Vochtigheid: 88%
Barometer: 998 hPa
Bewolking: Mostly Cloudy
Zicht: meer dan 10 km
Bewolking: Licht bewolkt 1500 ft,
Grotendeels bewolkt 3600 ft,
Grotendeels bewolkt 4000 ft
EHEH 041129Z AUTO 27005KT 220V330 9999 DZ FEW015CB BKN036 BKN040 14/12 Q0998 BLU 32010KT 9999 SCT020 BKN030 TEMPO SCT015CB BKN020
EHGR - Gilze/Rijen
Gewijzigd: 04-06-2020 13:34
Grotendeels bewolkt  
Grotendeels bewolkt  
   Wind: NW 20.4 km/h
Wind: NW 20.4 km/h
Temperatuur: 15°C
Dauwpunt: 10°C
Vochtigheid: 72%
Barometer: 997 hPa
Bewolking: Mostly Cloudy
Zicht: meer dan 10 km
Bewolking: Licht bewolkt 1900 ft,
Gedeeltelijk bewolkt 2700 ft,
Grotendeels bewolkt 5400 ft
EHGR 041134Z AUTO 31011KT 270V360 9999 FEW019CB SCT027 BKN054 15/10 Q0997 BLU 30008KT 9999 FEW025 BKN045 BKN55
EHBK - Maastricht
Gewijzigd: 04-06-2020 13:25
Wat regen mogelijk, Bewolking  
Wat regen mogelijk, Bewolking  
   Wind: NW 14.8 km/h
Wind: NW 14.8 km/h
Temperatuur: 14°C
Dauwpunt: 9°C
Vochtigheid: 72%
Barometer: 998 hPa
Bewolking: Overcast
Zicht: meer dan 10 km
Bewolking: Licht bewolkt 1800 ft,
Bewolking 2200 ft
EHBK 041125Z AUTO 32008KT 280V360 9999 -RA FEW018CB OVC022 14/09 Q0998 TEMPO 7000 RA BKN012
EHVK - Volkel
Gewijzigd: 04-06-2020 13:44
Regen, Grotendeels bewolkt  
Regen, Grotendeels bewolkt  
   Wind: WNW 7.4 km/h
Wind: WNW 7.4 km/h
Temperatuur: 14°C
Dauwpunt: 10°C
Vochtigheid: 77%
Barometer: 997 hPa
Bewolking: Mostly Cloudy
Zicht: meer dan 10 km
Bewolking: Gedeeltelijk bewolkt 1500 ft,
Grotendeels bewolkt 4200 ft,
Grotendeels bewolkt 4700 ft
EHVK 041144Z AUTO 29004KT 260V340 9999 RA SCT015CB BKN042 BKN047 14/10 Q0997 WHT 31009KT 9999 BKN025 TEMPO 32010G20KT SCT015 SCT018CB BKN020
EHFS - Vlissingen
Gewijzigd: 04-06-2020 13:25
Lichte (mot)regen, Bewolking  
Lichte (mot)regen, Bewolking  
   Wind: NNW 27.8 km/h
Wind: NNW 27.8 km/h
Temperatuur: 13°C
Dauwpunt: 9°C
Vochtigheid: 77%
Barometer: 1000 hPa
Bewolking: Overcast
Zicht: meer dan 10 km
Bewolking: Grotendeels bewolkt 1600 ft,
Bewolking 2000 ft
EHFS 041125Z AUTO 34015KT 290V010 9999 -DZ BKN016/// OVC020/// 13/09 Q1000 REDZ

Script ontwikkeld door  Saratoga-weather.org Aangepast voor de template door  Weerstation Leuven

Apparatuur in gebruik:

Weerstation
Davis VP2

Weerprogramma
WeatherLink

Weercomputer
Sponsor

Webleverancier
My provider

Davis VP2

WeatherLink

Sponsor

My provider